Time;durP1;ratioP1;P1;durP2;ratioP2;P2;SDS_P1;SDS_P2;PMS_P1;PMS_P2;Temp;Humidity;BMP_temperature;BMP_pressure;BME280_temperature;BME280_humidity;BME280_pressure;Samples;Min_cycle;Max_cycle;Signal;HPM_P1;HPM_P2
2023/05/09 00:01:11;;;;;;;22.35;19.42;;;;;;;-146.58;100.00;69501.63;5051921;28;20048;-59
2023/05/09 00:03:37;;;;;;;24.00;18.88;;;;;;;-146.58;100.00;69501.63;5050074;28;20473;-58
2023/05/09 00:06:04;;;;;;;21.05;18.88;;;;;;;-146.58;100.00;69501.63;5051577;28;20028;-59
2023/05/09 00:08:29;;;;;;;21.33;19.10;;;;;;;-146.58;100.00;69501.63;5051705;28;20498;-60
2023/05/09 00:10:55;;;;;;;21.30;19.02;;;;;;;-146.58;100.00;69501.63;5049958;28;20044;-59
2023/05/09 00:13:20;;;;;;;21.35;19.15;;;;;;;-146.58;100.00;69501.63;5051502;28;20070;-59
2023/05/09 00:15:45;;;;;;;22.10;19.65;;;;;;;-146.58;100.00;69501.63;5050355;28;20440;-59
2023/05/09 00:18:13;;;;;;;21.35;19.13;;;;;;;-146.58;100.00;69501.63;5051400;28;20092;-59
2023/05/09 00:20:39;;;;;;;23.83;20.77;;;;;;;-146.58;100.00;69501.63;5049992;28;20106;-58
2023/05/09 00:23:05;;;;;;;20.65;18.45;;;;;;;-146.58;100.00;69501.63;5051731;28;20384;-59
2023/05/09 00:25:31;;;;;;;24.05;19.00;;;;;;;-146.58;100.00;69501.63;5049407;28;20052;-58
2023/05/09 00:27:56;;;;;;;21.38;19.23;;;;;;;-146.58;100.00;69501.63;5051269;28;20032;-59
2023/05/09 00:30:22;;;;;;;25.23;20.27;;;;;;;-146.58;100.00;69501.63;5064262;28;20037;-58
2023/05/09 00:32:47;;;;;;;24.73;22.35;;;;;;;-146.58;100.00;69501.63;5071133;28;20074;-59
2023/05/09 00:35:12;;;;;;;21.20;18.27;;;;;;;-146.58;100.00;69501.63;5069968;28;20043;-59
2023/05/09 00:37:38;;;;;;;22.05;19.02;;;;;;;-146.58;100.00;69501.63;5071053;28;20027;-59
2023/05/09 00:40:05;;;;;;;22.15;20.13;;;;;;;-146.58;100.00;69501.63;5068791;28;20036;-59
2023/05/09 00:42:30;;;;;;;21.73;19.35;;;;;;;-146.58;100.00;69501.63;5070448;28;20020;-59
2023/05/09 00:44:56;;;;;;;21.63;19.00;;;;;;;-146.58;100.00;69501.63;5069922;28;20044;-59
2023/05/09 00:47:22;;;;;;;23.02;20.63;;;;;;;-146.58;100.00;69501.63;5070728;28;20028;-59
2023/05/09 00:49:47;;;;;;;22.38;18.83;;;;;;;-146.58;100.00;69501.63;5069435;28;20040;-59
2023/05/09 00:52:12;;;;;;;21.48;19.30;;;;;;;-146.58;100.00;69501.63;5071074;28;20493;-58
2023/05/09 00:54:38;;;;;;;18.08;16.20;;;;;;;-146.58;100.00;69501.63;5069096;28;20422;-59
2023/05/09 00:57:03;;;;;;;21.35;18.33;;;;;;;-146.58;100.00;69501.63;5070849;28;20024;-59
2023/05/09 00:59:29;;;;;;;20.05;18.10;;;;;;;-146.58;100.00;69501.63;5068930;28;20506;-59
2023/05/09 01:01:55;;;;;;;21.50;19.30;;;;;;;-146.58;100.00;69501.63;5071095;28;20077;-59
2023/05/09 01:04:20;;;;;;;22.63;20.42;;;;;;;-146.58;100.00;69501.63;5069348;28;20461;-59
2023/05/09 01:07:12;;;;;;;20.67;18.52;;;;;;;-146.58;100.00;69501.63;5071082;28;20035;-60
2023/05/09 01:10:13;;;;;;;22.58;20.15;;;;;;;-146.58;100.00;69501.63;5066580;28;20040;-60
2023/05/09 01:12:53;;;;;;;24.00;21.60;;;;;;;-146.58;100.00;69501.63;5050376;28;20513;-60
2023/05/09 01:15:31;;;;;;;21.05;18.85;;;;;;;-146.58;100.00;69501.63;5063622;28;20036;-59
2023/05/09 01:18:05;;;;;;;22.50;20.17;;;;;;;-146.58;100.00;69501.63;5070708;28;20028;-59
2023/05/09 01:20:34;;;;;;;23.48;20.88;;;;;;;-146.58;100.00;69501.63;5069190;28;20498;-60
2023/05/09 01:23:36;;;;;;;22.58;19.35;;;;;;;-146.58;100.00;69501.63;5070676;28;20483;-60
2023/05/09 01:26:20;;;;;;;23.02;20.75;;;;;;;-146.58;100.00;69501.63;5069476;28;20040;-59
2023/05/09 01:29:13;;;;;;;22.88;20.48;;;;;;;-146.58;100.00;69501.63;5069700;28;20441;-61
2023/05/09 01:31:40;;;;;;;23.38;21.08;;;;;;;-146.58;100.00;69501.63;5069841;28;20021;-60
2023/05/09 01:34:08;;;;;;;21.35;19.25;;;;;;;-146.58;100.00;69501.63;5069224;28;20033;-60
2023/05/09 01:36:37;;;;;;;23.85;20.52;;;;;;;-146.58;100.00;69501.63;5070321;28;20631;-60
2023/05/09 01:39:04;;;;;;;23.15;20.85;;;;;;;-146.58;100.00;69501.63;5068898;28;20083;-60
2023/05/09 01:41:33;;;;;;;28.23;22.38;;;;;;;-146.58;100.00;69501.63;5070652;28;20508;-60
2023/05/09 01:44:01;;;;;;;23.33;20.90;;;;;;;-146.58;100.00;69501.63;5069154;28;20037;-60
2023/05/09 01:46:27;;;;;;;21.08;19.02;;;;;;;-146.58;100.00;69501.63;5069513;28;20091;-60
2023/05/09 01:48:54;;;;;;;22.88;20.67;;;;;;;-146.58;100.00;69501.63;5069177;28;20127;-60
2023/05/09 01:51:20;;;;;;;22.90;20.33;;;;;;;-146.58;100.00;69501.63;5072100;28;20027;-60
2023/05/09 01:53:48;;;;;;;22.13;20.00;;;;;;;-146.58;100.00;69501.63;5072781;28;20020;-60
2023/05/09 01:56:14;;;;;;;25.00;20.67;;;;;;;-146.58;100.00;69501.63;5073935;28;20115;-60
2023/05/09 01:58:41;;;;;;;27.70;22.63;;;;;;;-146.58;100.00;69501.63;5072751;28;20017;-59
2023/05/09 02:01:08;;;;;;;25.02;19.08;;;;;;;-146.58;100.00;69501.63;5072396;28;20059;-59
2023/05/09 02:03:36;;;;;;;24.35;21.95;;;;;;;-146.58;100.00;69501.63;5074205;28;20033;-60
2023/05/09 02:06:03;;;;;;;22.08;19.95;;;;;;;-146.58;100.00;69501.63;5072422;28;20040;-59
2023/05/09 02:08:29;;;;;;;23.70;21.15;;;;;;;-146.58;100.00;69501.63;5072339;28;20028;-59
2023/05/09 02:10:55;;;;;;;23.63;21.13;;;;;;;-146.58;100.00;69501.63;5072442;28;20487;-59
2023/05/09 02:13:20;;;;;;;26.45;21.42;;;;;;;-146.58;100.00;69501.63;5054243;28;20020;-60
2023/05/09 02:15:46;;;;;;;23.98;21.50;;;;;;;-146.58;100.00;69501.63;5070111;28;20481;-60
2023/05/09 02:18:12;;;;;;;24.13;19.58;;;;;;;-146.58;100.00;69501.63;5074177;28;20032;-59
2023/05/09 02:20:38;;;;;;;24.55;19.33;;;;;;;-146.58;100.00;69501.63;5071863;28;20067;-59
2023/05/09 02:23:03;;;;;;;22.40;20.20;;;;;;;-146.58;100.00;69501.63;5073281;28;20474;-60
2023/05/09 02:25:31;;;;;;;22.83;20.42;;;;;;;-146.58;100.00;69501.63;5072135;28;20055;-59
2023/05/09 02:27:58;;;;;;;23.08;20.33;;;;;;;-146.58;100.00;69501.63;5073875;28;20103;-59
2023/05/09 02:30:25;;;;;;;24.17;21.70;;;;;;;-146.58;100.00;69501.63;5071846;28;20037;-59
2023/05/09 02:33:03;;;;;;;23.38;20.75;;;;;;;-146.58;100.00;69501.63;5073916;28;20020;-59
2023/05/09 02:35:28;;;;;;;23.15;20.30;;;;;;;-146.58;100.00;69501.63;5071743;28;20048;-59
2023/05/09 02:37:55;;;;;;;27.20;22.45;;;;;;;-146.58;100.00;69501.63;5073478;28;20072;-59
2023/05/09 02:40:21;;;;;;;24.20;21.95;;;;;;;-146.58;100.00;69501.63;5072007;28;20127;-59
2023/05/09 02:42:47;;;;;;;24.40;22.10;;;;;;;-146.58;100.00;69501.63;5073323;28;20105;-59
2023/05/09 02:45:12;;;;;;;25.83;22.55;;;;;;;-146.58;100.00;69501.63;5071443;28;20040;-58
2023/05/09 02:47:38;;;;;;;27.02;23.70;;;;;;;-146.58;100.00;69501.63;5072933;28;20024;-58
2023/05/09 02:50:04;;;;;;;28.23;25.33;;;;;;;-146.58;100.00;69501.63;5070529;28;20113;-59
2023/05/09 02:52:29;;;;;;;24.55;22.05;;;;;;;-146.58;100.00;69501.63;5072952;28;20020;-59
2023/05/09 02:54:55;;;;;;;24.85;21.88;;;;;;;-146.58;100.00;69501.63;5072055;28;20107;-60
2023/05/09 02:57:21;;;;;;;25.95;22.63;;;;;;;-146.58;100.00;69501.63;5073088;28;20021;-59
2023/05/09 02:59:46;;;;;;;28.52;22.10;;;;;;;-146.58;100.00;69501.63;5071369;28;20047;-60
2023/05/09 03:02:11;;;;;;;27.00;21.88;;;;;;;-146.58;100.00;69501.63;5072464;28;20426;-59
2023/05/09 03:04:37;;;;;;;25.77;22.98;;;;;;;-146.58;100.00;69501.63;5071112;28;20052;-59
2023/05/09 03:07:02;;;;;;;25.00;21.38;;;;;;;-146.58;100.00;69501.63;5072877;28;20039;-59
2023/05/09 03:09:28;;;;;;;25.33;22.70;;;;;;;-146.58;100.00;69501.63;5071304;28;20495;-59
2023/05/09 03:11:55;;;;;;;30.67;21.92;;;;;;;-146.58;100.00;69501.63;5073044;28;20028;-60
2023/05/09 03:14:20;;;;;;;28.98;24.05;;;;;;;-146.58;100.00;69501.63;5071174;28;20040;-59
2023/05/09 03:16:46;;;;;;;27.05;24.10;;;;;;;-146.58;100.00;69501.63;5072924;28;20021;-59
2023/05/09 03:19:11;;;;;;;25.98;23.27;;;;;;;-146.58;100.00;69501.63;5071558;28;20043;-60
2023/05/09 03:21:36;;;;;;;26.42;23.63;;;;;;;-146.58;100.00;69501.63;5072459;28;20036;-60
2023/05/09 03:24:03;;;;;;;24.88;22.25;;;;;;;-146.58;100.00;69501.63;5071036;28;20045;-59
2023/05/09 03:26:29;;;;;;;25.00;22.40;;;;;;;-146.58;100.00;69501.63;5072533;28;20409;-58
2023/05/09 03:28:54;;;;;;;29.35;25.60;;;;;;;-146.58;100.00;69501.63;5071500;28;20111;-60
2023/05/09 03:31:19;;;;;;;28.90;25.77;;;;;;;-146.58;100.00;69501.63;5072474;28;20078;-60
2023/05/09 03:33:45;;;;;;;30.70;25.48;;;;;;;-146.58;100.00;69501.63;5070857;28;20024;-60
2023/05/09 03:36:10;;;;;;;28.85;25.88;;;;;;;-146.58;100.00;69501.63;5072393;28;20021;-59
2023/05/09 03:38:35;;;;;;;26.98;23.75;;;;;;;-146.58;100.00;69501.63;5070345;28;20025;-59
2023/05/09 03:41:01;;;;;;;27.23;24.30;;;;;;;-146.58;100.00;69501.63;5072499;28;20023;-59
2023/05/09 03:43:26;;;;;;;27.15;24.38;;;;;;;-146.58;100.00;69501.63;5072100;28;20029;-59
2023/05/09 03:45:51;;;;;;;25.58;22.90;;;;;;;-146.58;100.00;69501.63;5070633;28;20040;-60
2023/05/09 03:48:17;;;;;;;26.08;23.33;;;;;;;-146.58;100.00;69501.63;5072163;28;20025;-58
2023/05/09 03:50:42;;;;;;;27.15;24.30;;;;;;;-146.58;100.00;69501.63;5070516;28;20033;-58
2023/05/09 03:53:08;;;;;;;33.03;23.65;;;;;;;-146.58;100.00;69501.63;5072256;28;20031;-59
2023/05/09 03:55:33;;;;;;;27.13;24.17;;;;;;;-146.58;100.00;69501.63;5070545;28;20403;-58
2023/05/09 03:57:59;;;;;;;27.27;22.83;;;;;;;-146.58;100.00;69501.63;5071834;28;20124;-58
2023/05/09 04:00:25;;;;;;;24.83;22.08;;;;;;;-146.58;100.00;69501.63;5069781;28;20049;-59
2023/05/09 04:02:51;;;;;;;28.42;25.30;;;;;;;-146.58;100.00;69501.63;5071958;28;20035;-59
2023/05/09 04:05:17;;;;;;;28.67;23.83;;;;;;;-146.58;100.00;69501.63;5070391;28;20032;-59
2023/05/09 04:07:42;;;;;;;27.45;24.67;;;;;;;-146.58;100.00;69501.63;5071525;28;20031;-58
2023/05/09 04:10:08;;;;;;;28.60;25.88;;;;;;;-146.58;100.00;69501.63;5069972;28;20048;-59
2023/05/09 04:12:33;;;;;;;26.02;23.25;;;;;;;-146.58;100.00;69501.63;5071163;28;20498;-58
2023/05/09 04:14:59;;;;;;;28.10;24.70;;;;;;;-146.58;100.00;69501.63;5067852;28;20115;-58
2023/05/09 04:17:24;;;;;;;30.60;25.75;;;;;;;-146.58;100.00;69501.63;5070776;28;20444;-58
2023/05/09 04:19:50;;;;;;;29.20;26.10;;;;;;;-146.58;100.00;69501.63;5064501;28;20067;-58
2023/05/09 04:22:15;;;;;;;30.75;26.85;;;;;;;-146.58;100.00;69501.63;5070494;28;20037;-58
2023/05/09 04:24:41;;;;;;;26.38;23.67;;;;;;;-146.58;100.00;69501.63;5069517;28;20048;-58
2023/05/09 04:27:06;;;;;;;32.63;26.23;;;;;;;-146.58;100.00;69501.63;5068633;28;20040;-57
2023/05/09 04:29:32;;;;;;;26.80;23.98;;;;;;;-146.58;100.00;69501.63;5061109;28;20113;-57
2023/05/09 04:31:58;;;;;;;30.85;24.70;;;;;;;-146.58;100.00;69501.63;5071646;28;20628;-57
2023/05/09 04:34:25;;;;;;;29.05;24.15;;;;;;;-146.58;100.00;69501.63;5069258;28;20635;-57
2023/05/09 04:36:50;;;;;;;27.92;22.30;;;;;;;-146.58;100.00;69501.63;5070817;28;20033;-57
2023/05/09 04:39:16;;;;;;;34.22;24.88;;;;;;;-146.58;100.00;69501.63;5069791;28;20495;-57
2023/05/09 04:41:43;;;;;;;31.35;28.08;;;;;;;-146.58;100.00;69501.63;5070826;28;20511;-58
2023/05/09 04:44:08;;;;;;;29.77;25.63;;;;;;;-146.58;100.00;69501.63;5069454;28;20040;-58
2023/05/09 04:46:34;;;;;;;30.27;27.08;;;;;;;-146.58;100.00;69501.63;5070710;28;20455;-57
2023/05/09 04:48:59;;;;;;;29.40;23.55;;;;;;;-146.58;100.00;69501.63;5069839;28;20036;-57
2023/05/09 04:51:24;;;;;;;29.70;25.77;;;;;;;-146.58;100.00;69501.63;5070697;28;20024;-57
2023/05/09 04:53:50;;;;;;;28.00;25.10;;;;;;;-146.58;100.00;69501.63;5069702;28;20081;-57
2023/05/09 04:56:15;;;;;;;32.70;28.15;;;;;;;-146.58;100.00;69501.63;5071060;28;20013;-57
2023/05/09 04:58:41;;;;;;;30.75;26.73;;;;;;;-146.58;100.00;69501.63;5068993;28;20086;-57
2023/05/09 05:01:06;;;;;;;35.28;28.70;;;;;;;-146.58;100.00;69501.63;5064620;28;20052;-56
2023/05/09 05:03:32;;;;;;;32.05;27.38;;;;;;;-146.58;100.00;69501.63;5057037;28;20025;-57
2023/05/09 05:05:58;;;;;;;36.58;29.98;;;;;;;-146.58;100.00;69501.63;5057774;28;20048;-57
2023/05/09 05:08:23;;;;;;;42.47;32.55;;;;;;;-146.58;100.00;69501.63;5057867;28;20090;-57
2023/05/09 05:10:48;;;;;;;35.08;28.48;;;;;;;-146.58;100.00;69501.63;5056520;28;20033;-57
2023/05/09 05:13:14;;;;;;;50.88;35.33;;;;;;;-146.58;100.00;69501.63;5058625;28;20128;-57
2023/05/09 05:15:40;;;;;;;43.42;32.60;;;;;;;-146.58;100.00;69501.63;5055608;28;20041;-57
2023/05/09 05:18:06;;;;;;;57.67;37.28;;;;;;;-146.58;100.00;69501.63;5057575;28;20024;-56
2023/05/09 05:20:31;;;;;;;55.20;37.53;;;;;;;-146.58;100.00;69501.63;5058261;28;20049;-57
2023/05/09 05:22:57;;;;;;;57.08;41.28;;;;;;;-146.58;100.00;69501.63;5058099;28;20083;-57
2023/05/09 05:25:23;;;;;;;61.63;41.15;;;;;;;-146.58;100.00;69501.63;5057020;28;20045;-57
2023/05/09 05:27:48;;;;;;;62.35;42.55;;;;;;;-146.58;100.00;69501.63;5057439;28;20464;-57
2023/05/09 05:30:16;;;;;;;54.55;39.65;;;;;;;-146.58;100.00;69501.63;5048233;28;20051;-57
2023/05/09 05:32:42;;;;;;;64.03;38.53;;;;;;;-146.58;100.00;69501.63;5049432;28;20383;-57
2023/05/09 05:35:10;;;;;;;61.40;38.97;;;;;;;-146.58;100.00;69501.63;5047776;28;20048;-57
2023/05/09 05:37:36;;;;;;;60.67;40.65;;;;;;;-146.58;100.00;69501.63;5048505;28;20060;-57
2023/05/09 05:40:02;;;;;;;54.17;38.22;;;;;;;-146.58;100.00;69501.63;5047401;28;20111;-57
2023/05/09 05:42:27;;;;;;;56.63;39.42;;;;;;;-146.58;100.00;69501.63;5048752;28;20436;-57
2023/05/09 05:44:53;;;;;;;56.78;37.83;;;;;;;-146.58;100.00;69501.63;5048199;28;20052;-57
2023/05/09 05:47:18;;;;;;;63.47;40.50;;;;;;;-146.58;100.00;69501.63;5050170;28;20017;-57
2023/05/09 05:49:43;;;;;;;62.20;41.97;;;;;;;-146.58;100.00;69501.63;5048371;28;20041;-57
2023/05/09 05:52:09;;;;;;;69.03;41.75;;;;;;;-146.58;100.00;69501.63;5050271;28;20088;-57
2023/05/09 05:54:34;;;;;;;60.60;38.40;;;;;;;-146.58;100.00;69501.63;5048430;28;20411;-57
2023/05/09 05:56:59;;;;;;;57.38;36.45;;;;;;;-146.58;100.00;69501.63;5050344;28;20016;-57
2023/05/09 05:59:25;;;;;;;52.88;38.40;;;;;;;-146.58;100.00;69501.63;5048472;28;20483;-57
2023/05/09 06:01:50;;;;;;;59.08;40.47;;;;;;;-146.58;100.00;69501.63;5050379;28;20102;-58
2023/05/09 06:04:15;;;;;;;53.83;39.08;;;;;;;-146.58;100.00;69501.63;5047501;28;20041;-57
2023/05/09 06:06:41;;;;;;;63.72;40.40;;;;;;;-146.58;100.00;69501.63;5049250;28;20055;-57
2023/05/09 06:09:06;;;;;;;59.53;40.15;;;;;;;14.71;100.00;164411.31;5048942;28;20442;-57
2023/05/09 06:11:31;;;;;;;57.10;40.42;;;;;;;15.69;100.00;164668.50;5049944;28;20025;-57
2023/05/09 06:13:57;;;;;;;56.50;38.42;;;;;;;15.86;100.00;164713.28;5048460;28;20041;-57
2023/05/09 06:16:22;;;;;;;55.70;41.20;;;;;;;16.02;100.00;164755.22;5050057;28;20526;-57
2023/05/09 06:18:48;;;;;;;48.67;35.83;;;;;;;16.18;100.00;164798.56;5053541;28;20406;-57
2023/05/09 06:21:13;;;;;;;50.83;34.60;;;;;;;16.31;100.00;164831.06;5049829;28;20029;-58
2023/05/09 06:23:38;;;;;;;62.30;42.75;;;;;;;16.41;100.00;164858.19;5046926;28;20051;-57
2023/05/09 06:26:04;;;;;;;52.78;37.97;;;;;;;16.55;100.00;164893.38;5031923;28;20373;-57
2023/05/09 06:28:29;;;;;;;53.30;36.88;;;;;;;16.71;100.00;164936.75;5041219;28;20060;-57
2023/05/09 06:30:55;;;;;;;52.00;38.33;;;;;;;16.89;100.00;164982.78;5067329;28;20134;-57
2023/05/09 06:33:20;;;;;;;58.35;37.03;;;;;;;16.99;100.00;165009.94;5070066;28;20027;-58
2023/05/09 06:35:45;;;;;;;49.05;35.63;;;;;;;17.00;100.00;165012.66;5068221;28;20040;-58
2023/05/09 06:38:11;;;;;;;47.33;31.70;;;;;;;16.88;100.00;164981.44;5071458;28;20031;-58
2023/05/09 06:40:36;;;;;;;47.05;32.38;;;;;;;16.68;100.00;164928.59;5071492;28;20048;-57
2023/05/09 06:43:02;;;;;;;55.42;37.15;;;;;;;16.48;100.00;164877.13;5068739;28;20544;-58
2023/05/09 06:45:27;;;;;;;48.78;32.72;;;;;;;16.31;100.00;164831.06;5051699;28;20048;-57
2023/05/09 06:47:53;;;;;;;53.58;33.50;;;;;;;16.23;100.00;164809.41;5053347;28;20387;-58
2023/05/09 06:50:18;;;;;;;52.65;34.05;;;;;;;16.22;100.00;164806.69;5051362;28;20037;-58
2023/05/09 06:52:44;;;;;;;43.80;31.40;;;;;;;16.18;100.00;164798.56;5053023;28;20079;-58
2023/05/09 06:55:09;;;;;;;42.67;31.98;;;;;;;16.18;100.00;164798.56;5051597;28;20037;-58
2023/05/09 06:57:35;;;;;;;43.50;30.00;;;;;;;16.14;100.00;164787.72;5052783;28;20514;-57
2023/05/09 07:00:00;;;;;;;43.42;31.67;;;;;;;16.19;100.00;164799.91;5051585;28;20469;-57
2023/05/09 07:02:25;;;;;;;43.97;29.58;;;;;;;16.22;100.00;164806.69;5053187;28;20028;-58
2023/05/09 07:04:51;;;;;;;48.90;34.42;;;;;;;16.23;100.00;164809.41;5051267;28;20581;-57
2023/05/09 07:07:16;;;;;;;44.10;29.77;;;;;;;16.28;100.00;164822.91;5053034;28;20122;-57
2023/05/09 07:09:41;;;;;;;44.13;31.15;;;;;;;16.29;100.00;164825.63;5051410;28;20044;-57
2023/05/09 07:12:07;;;;;;;45.95;30.38;;;;;;;16.31;100.00;164831.06;5052729;28;20036;-58
2023/05/09 07:14:32;;;;;;;39.05;27.60;;;;;;;16.34;100.00;164839.22;5051353;28;20510;-57
2023/05/09 07:16:57;;;;;;;41.47;29.05;;;;;;;16.34;100.00;164839.22;5052918;28;20606;-57
2023/05/09 07:19:23;;;;;;;42.05;31.10;;;;;;;16.37;100.00;164845.97;5050933;28;20055;-57
2023/05/09 07:21:48;;;;;;;42.25;32.80;;;;;;;16.33;100.00;164836.50;5052818;28;20033;-57
2023/05/09 07:24:13;;;;;;;44.28;31.52;;;;;;;16.34;100.00;164839.22;5051322;28;20048;-58
2023/05/09 07:26:39;;;;;;;46.45;32.83;;;;;;;16.32;100.00;164833.78;5051802;28;20100;-57
2023/05/09 07:29:04;;;;;;;54.45;31.30;;;;;;;16.44;100.00;164866.28;5051132;28;20095;-57
2023/05/09 07:31:29;;;;;;;41.80;32.05;;;;;;;16.67;100.00;164925.88;5052727;28;20021;-57
2023/05/09 07:33:55;;;;;;;43.10;29.20;;;;;;;16.85;100.00;164971.97;5051097;28;20381;-57
2023/05/09 07:36:20;;;;;;;43.00;30.08;;;;;;;16.95;100.00;165000.47;5052443;28;20020;-57
2023/05/09 07:38:51;;;;;;;37.92;27.60;;;;;;;17.09;100.00;165037.00;5051093;28;20034;-57
2023/05/09 07:41:16;;;;;;;41.33;31.25;;;;;;;17.25;100.00;165077.66;5052359;28;20021;-57
2023/05/09 07:43:42;;;;;;;35.45;29.27;;;;;;;17.22;100.00;165069.56;5060377;28;20491;-57
2023/05/09 07:46:07;;;;;;;39.10;29.40;;;;;;;17.53;100.00;165150.88;5072602;28;20037;-57
2023/05/09 07:48:32;;;;;;;43.65;30.85;;;;;;;17.64;100.00;165180.69;5071569;28;20074;-57
2023/05/09 07:50:58;;;;;;;43.97;31.83;;;;;;;17.79;100.00;165218.63;5070732;28;20066;-57
2023/05/09 07:53:23;;;;;;;41.97;32.45;;;;;;;17.88;100.00;165244.38;5072205;28;20028;-57
2023/05/09 07:55:49;;;;;;;45.97;33.58;;;;;;;17.86;100.00;165239.00;5070223;28;20037;-57
2023/05/09 07:58:15;;;;;;;47.35;35.17;;;;;;;17.76;100.00;165213.19;5071967;28;20025;-58
2023/05/09 08:00:41;;;;;;;46.58;32.08;;;;;;;17.75;100.00;165209.16;5070093;28;20071;-57
2023/05/09 08:03:06;;;;;;;45.97;32.70;;;;;;;17.61;100.00;165172.53;5071757;28;20024;-57
2023/05/09 08:05:32;;;;;;;43.60;34.88;;;;;;;17.64;100.00;165180.69;5070183;28;20040;-57
2023/05/09 08:07:57;;;;;;;48.83;34.90;;;;;;;17.64;100.00;165180.69;5072015;28;20082;-57
2023/05/09 08:10:22;;;;;;;43.95;34.28;;;;;;;17.86;100.00;165237.59;5070063;28;20048;-57
2023/05/09 08:12:48;;;;;;;48.85;34.70;;;;;;;18.17;100.00;165319.00;5071711;28;20028;-58
2023/05/09 08:15:13;;;;;;;47.50;37.05;;;;;;;18.38;100.00;165374.63;5070408;28;20040;-58
2023/05/09 08:17:39;;;;;;;46.28;34.47;;;;;;;18.60;100.00;165432.91;5071544;28;20395;-58
2023/05/09 08:20:04;;;;;;;45.08;33.00;;;;;;;18.70;100.00;165460.03;5069766;28;20114;-58
2023/05/09 08:22:30;;;;;;;50.13;34.40;;;;;;;18.74;100.00;165468.16;5071337;28;20024;-57
2023/05/09 08:24:55;;;;;;;46.35;33.00;;;;;;;18.66;100.00;165449.16;5070239;28;20055;-58
2023/05/09 08:27:20;;;;;;;46.88;33.67;;;;;;;18.77;100.00;165476.31;5070673;28;20025;-57
2023/05/09 08:29:46;;;;;;;50.60;38.20;;;;;;;18.90;100.00;165510.22;5070151;28;20048;-58
2023/05/09 08:32:11;;;;;;;41.00;35.08;;;;;;;18.83;100.00;165492.56;5071638;28;20696;-57
2023/05/09 08:34:36;;;;;;;46.67;34.85;;;;;;;18.47;100.00;165397.66;5069378;28;20382;-57
2023/05/09 08:37:03;;;;;;;50.03;37.88;;;;;;;18.46;100.00;165396.31;5060976;28;20029;-58
2023/05/09 08:39:29;;;;;;;47.20;36.60;;;;;;;18.44;100.00;165389.50;5049659;28;20108;-57
2023/05/09 08:41:58;;;;;;;47.83;34.55;;;;;;;18.54;100.00;165416.63;5050044;28;20036;-58
2023/05/09 08:44:28;;;;;;;47.08;37.92;;;;;;;18.57;100.00;165423.41;5064865;28;20471;-57
2023/05/09 08:46:58;;;;;;;50.95;37.05;;;;;;;18.69;100.00;165457.31;5071156;28;20029;-58
2023/05/09 08:49:23;;;;;;;49.90;36.80;;;;;;;18.70;100.00;165458.66;5069299;28;20024;-58
2023/05/09 08:51:49;;;;;;;47.00;35.75;;;;;;;18.63;100.00;165441.06;5071051;28;20055;-58
2023/05/09 08:54:15;;;;;;;51.50;37.88;;;;;;;18.57;100.00;165424.78;5071312;28;20023;-58
2023/05/09 08:56:40;;;;;;;46.35;34.85;;;;;;;18.55;100.00;165419.34;5069103;28;20480;-57
2023/05/09 08:59:06;;;;;;;49.97;36.65;;;;;;;18.55;100.00;165419.34;5071022;28;20050;-58
2023/05/09 09:01:33;;;;;;;49.67;37.47;;;;;;;18.59;100.00;165428.84;5068500;28;20511;-57
2023/05/09 09:03:59;;;;;;;50.58;38.42;;;;;;;18.35;100.00;165367.84;5070548;28;20024;-57
2023/05/09 09:06:27;;;;;;;50.05;38.97;;;;;;;18.43;100.00;165386.81;5069168;28;20036;-57
2023/05/09 09:08:54;;;;;;;55.92;42.83;;;;;;;18.65;100.00;165446.44;5071023;28;20032;-57
2023/05/09 09:11:21;;;;;;;58.70;40.67;;;;;;;19.01;100.00;165541.47;5069008;28;20755;-57
2023/05/09 09:13:50;;;;;;;51.42;39.63;;;;;;;19.39;100.00;165639.16;5070749;28;20488;-57
2023/05/09 09:16:20;;;;;;;53.63;38.60;;;;;;;19.74;100.00;165731.41;5069437;28;20033;-58
2023/05/09 09:18:46;;;;;;;55.63;38.20;;;;;;;20.03;100.00;165807.44;5070413;28;20024;-57
2023/05/09 09:21:15;;;;;;;56.42;39.13;;;;;;;20.28;100.00;165875.34;5069321;28;20043;-57
2023/05/09 09:23:42;;;;;;;52.20;34.80;;;;;;;20.32;100.00;165883.44;5070160;28;20534;-57
2023/05/09 09:26:07;;;;;;;57.58;40.10;;;;;;;20.32;100.00;165884.84;5068927;28;20154;-57
2023/05/09 09:28:33;;;;;;;51.15;37.97;;;;;;;20.39;100.00;165903.84;5070157;28;20471;-58
2023/05/09 09:30:58;;;;;;;47.25;35.80;;;;;;;20.53;100.00;165939.13;5069325;28;20051;-58
2023/05/09 09:33:25;;;;;;;59.33;41.75;;;;;;;20.60;100.00;165958.13;5070451;28;20070;-58
2023/05/09 09:35:52;;;;;;;54.28;40.17;;;;;;;20.50;100.00;165932.34;5069054;28;20044;-59
2023/05/09 09:38:19;;;;;;;59.45;41.17;;;;;;;20.64;100.00;165967.63;5070646;28;20044;-58
2023/05/09 09:40:48;;;;;;;55.22;41.17;;;;;;;20.55;100.00;165944.56;5068731;28;20388;-58
2023/05/09 09:43:13;;;;;;;57.75;41.47;;;;;;;20.48;100.00;165925.56;5070434;28;20045;-57
2023/05/09 09:45:40;;;;;;;59.45;45.30;;;;;;;20.66;100.00;165973.06;5068900;28;20041;-57
2023/05/09 09:48:06;;;;;;;60.35;44.30;;;;;;;20.95;100.00;166049.16;5070054;28;20039;-57
2023/05/09 09:50:31;;;;;;;63.17;43.65;;;;;;;21.17;100.00;166108.91;5069021;28;20037;-58
2023/05/09 09:52:56;;;;;;;59.22;41.65;;;;;;;20.96;100.00;166051.88;5070606;28;20395;-58
2023/05/09 09:55:23;;;;;;;53.85;39.58;;;;;;;21.21;100.00;166119.75;5068620;28;20545;-57
2023/05/09 09:57:49;;;;;;;50.22;41.85;;;;;;;21.33;100.00;166149.63;5070397;28;20025;-57
2023/05/09 10:00:17;;;;;;;49.85;36.15;;;;;;;21.52;100.00;166201.22;5068790;28;20049;-57
2023/05/09 10:02:51;;;;;;;53.67;42.13;;;;;;;21.93;100.00;166307.25;5069863;28;20025;-57
2023/05/09 10:05:24;;;;;;;45.38;38.80;;;;;;;22.21;100.00;166381.94;5068847;28;20037;-58
2023/05/09 10:07:58;;;;;;;46.28;37.08;;;;;;;22.05;100.00;166338.44;5069314;28;20390;-58
2023/05/09 10:10:28;;;;;;;51.55;37.75;;;;;;;21.84;100.00;166285.50;5066423;28;20041;-57
2023/05/09 10:12:56;;;;;;;49.00;39.85;;;;;;;22.02;100.00;166331.66;5070644;28;20107;-57
2023/05/09 10:15:22;;;;;;;54.67;41.72;;;;;;;21.83;100.00;166282.78;5071918;28;20406;-58
2023/05/09 10:17:54;;;;;;;45.55;36.95;;;;;;;21.53;100.00;166203.94;5073345;28;20029;-58
2023/05/09 10:20:19;;;;;;;38.15;33.00;;;;;;;21.31;100.00;166144.19;5071031;28;20178;-58
2023/05/09 10:22:46;;;;;;;47.85;35.72;;;;;;;20.94;100.00;166046.44;5059856;28;20025;-58
2023/05/09 10:25:26;;;;;;;50.20;35.55;;;;;;;20.59;100.00;165956.72;5069976;28;20124;-58
2023/05/09 10:27:55;;;;;;;41.28;36.25;;;;;;;20.70;100.00;165983.91;5071709;28;20047;-58
2023/05/09 10:30:34;;;;;;;41.50;34.20;;;;;;;20.67;100.00;165975.75;5069989;28;20041;-58
2023/05/09 10:33:07;;;;;;;44.25;34.08;;;;;;;20.61;100.00;165962.19;5071558;28;20035;-58
2023/05/09 10:35:35;;;;;;;50.58;36.65;;;;;;;20.57;100.00;165951.34;5071463;28;20116;-58
2023/05/09 10:38:01;;;;;;;43.80;31.88;;;;;;;20.77;100.00;166002.97;5072138;28;20020;-58
2023/05/09 10:40:27;;;;;;;29.88;26.67;;;;;;;20.99;100.00;166059.97;5071075;28;20044;-58
2023/05/09 10:42:53;;;;;;;31.20;25.77;;;;;;;21.10;100.00;166089.88;5073124;28;20044;-58
2023/05/09 10:45:20;;;;;;;29.27;25.60;;;;;;;21.07;100.00;166081.72;5071621;28;20036;-57
2023/05/09 10:47:48;;;;;;;24.73;19.65;;;;;;;21.00;100.00;166064.03;5072354;28;20043;-57
2023/05/09 10:50:14;;;;;;;23.98;19.27;;;;;;;21.04;100.00;166073.53;5071723;28;20124;-58
2023/05/09 10:53:02;;;;;;;34.13;20.95;;;;;;;21.37;100.00;166160.47;5072894;28;20107;-57
2023/05/09 10:55:51;;;;;;;22.17;17.10;;;;;;;21.77;100.00;166266.50;5070979;28;20415;-57